createdAt,value
2022-11-27T00:01:35.311Z,34.28
2022-11-27T00:04:02.660Z,34.75
2022-11-27T00:06:32.037Z,36.35
2022-11-27T00:09:01.820Z,34.13
2022-11-27T00:11:31.606Z,34.47
2022-11-27T00:14:00.364Z,34.30
2022-11-27T00:16:29.179Z,34.60
2022-11-27T00:18:56.659Z,30.98
2022-11-27T00:21:29.465Z,33.42
2022-11-27T00:24:00.307Z,25.88
2022-11-27T00:26:34.464Z,29.05
2022-11-27T00:29:05.873Z,29.00
2022-11-27T00:31:35.011Z,26.35
2022-11-27T00:34:06.110Z,36.40
2022-11-27T00:36:34.939Z,34.88
2022-11-27T00:39:03.661Z,31.90
2022-11-27T00:41:31.564Z,30.02
2022-11-27T00:43:59.267Z,31.48
2022-11-27T00:46:33.071Z,29.55
2022-11-27T00:49:04.279Z,38.30
2022-11-27T00:51:32.763Z,35.08
2022-11-27T00:54:00.079Z,35.63
2022-11-27T00:56:32.396Z,34.75
2022-11-27T00:59:00.571Z,35.40
2022-11-27T01:01:34.723Z,31.42
2022-11-27T01:04:04.687Z,27.23
2022-11-27T01:06:32.677Z,28.92
2022-11-27T01:09:00.974Z,33.20
2022-11-27T01:11:31.958Z,33.95
2022-11-27T01:14:04.700Z,36.95
2022-11-27T01:16:34.174Z,38.85
2022-11-27T01:19:03.749Z,45.47
2022-11-27T01:21:34.315Z,40.10
2022-11-27T01:24:05.188Z,34.72
2022-11-27T01:26:32.471Z,40.88
2022-11-27T01:29:00.605Z,42.72
2022-11-27T01:31:31.845Z,45.88
2022-11-27T01:34:09.194Z,45.67
2022-11-27T01:36:36.766Z,44.45
2022-11-27T01:39:05.619Z,41.97
2022-11-27T01:41:39.836Z,34.92
2022-11-27T01:44:25.626Z,29.40
2022-11-27T01:47:18.041Z,45.45
2022-11-27T01:49:52.309Z,35.92
2022-11-27T01:52:27.736Z,36.22
2022-11-27T01:55:19.288Z,36.58
2022-11-27T01:57:53.831Z,42.33
2022-11-27T02:00:22.296Z,39.10
2022-11-27T02:02:50.059Z,41.88
2022-11-27T02:05:24.016Z,36.38
2022-11-27T02:07:53.665Z,33.33
2022-11-27T02:10:28.121Z,31.05
2022-11-27T02:13:14.605Z,39.80
2022-11-27T02:16:08.558Z,50.97
2022-11-27T02:19:04.532Z,52.38
2022-11-27T02:21:44.011Z,57.53
2022-11-27T02:25:02.779Z,51.85
2022-11-27T02:27:53.512Z,52.05
2022-11-27T02:30:20.914Z,47.25
2022-11-27T02:33:00.131Z,39.20
2022-11-27T02:35:43.946Z,42.67
2022-11-27T02:38:23.843Z,38.50
2022-11-27T02:41:07.734Z,38.03
2022-11-27T02:43:44.534Z,37.25
2022-11-27T02:46:14.192Z,43.00
2022-11-27T02:48:52.129Z,35.60
2022-11-27T02:51:28.514Z,32.67
2022-11-27T02:54:02.843Z,34.85
2022-11-27T02:56:33.897Z,42.17
2022-11-27T02:59:07.669Z,36.72
2022-11-27T03:01:43.041Z,34.30
2022-11-27T03:04:21.109Z,33.90
2022-11-27T03:06:55.898Z,42.03
2022-11-27T03:09:38.959Z,42.38
2022-11-27T03:12:10.356Z,41.35
2022-11-27T03:14:42.309Z,37.30
2022-11-27T03:17:52.303Z,38.67
2022-11-27T03:20:25.686Z,41.67
2022-11-27T03:22:57.093Z,37.22
2022-11-27T03:25:25.665Z,41.65
2022-11-27T03:28:04.845Z,33.67
2022-11-27T03:30:32.496Z,33.47
2022-11-27T03:33:01.521Z,34.33
2022-11-27T03:35:29.943Z,34.03
2022-11-27T03:37:57.361Z,36.15
2022-11-27T03:41:04.760Z,35.47
2022-11-27T03:43:46.802Z,39.22
2022-11-27T03:46:32.055Z,49.75
2022-11-27T03:49:24.694Z,45.30
2022-11-27T03:52:16.174Z,42.03
2022-11-27T03:55:08.496Z,44.67
2022-11-27T03:58:00.918Z,46.55
2022-11-27T04:00:38.344Z,43.78
2022-11-27T04:03:10.411Z,49.33
2022-11-27T04:05:38.148Z,57.05
2022-11-27T04:08:06.167Z,58.47
2022-11-27T04:10:33.379Z,48.67
2022-11-27T04:13:00.874Z,50.03
2022-11-27T04:15:28.018Z,49.65
2022-11-27T04:17:55.539Z,53.90
2022-11-27T04:20:22.799Z,51.67
2022-11-27T04:22:50.457Z,43.90
2022-11-27T04:25:17.998Z,37.70
2022-11-27T04:27:46.137Z,47.78
2022-11-27T04:30:14.327Z,43.72
2022-11-27T04:32:42.260Z,41.58
2022-11-27T04:35:10.654Z,49.90
2022-11-27T04:37:38.246Z,46.72
2022-11-27T04:40:06.860Z,46.50
2022-11-27T04:42:34.414Z,50.90
2022-11-27T04:45:01.652Z,43.92
2022-11-27T04:47:29.106Z,45.25
2022-11-27T04:49:56.315Z,46.03
2022-11-27T04:52:23.835Z,43.75
2022-11-27T04:54:55.392Z,48.53
2022-11-27T04:57:26.140Z,44.80
2022-11-27T04:59:53.311Z,44.72
2022-11-27T05:02:20.866Z,45.65
2022-11-27T05:04:48.125Z,46.97
2022-11-27T05:07:15.719Z,42.00
2022-11-27T05:09:43.033Z,46.05
2022-11-27T05:12:10.456Z,52.33
2022-11-27T05:14:37.941Z,52.45
2022-11-27T05:17:05.821Z,52.78
2022-11-27T05:19:33.167Z,43.20
2022-11-27T05:22:00.727Z,49.58
2022-11-27T05:24:29.605Z,48.15
2022-11-27T05:26:57.706Z,53.35
2022-11-27T05:29:26.010Z,42.38
2022-11-27T05:31:54.058Z,41.58
2022-11-27T05:34:21.716Z,54.15
2022-11-27T05:36:49.287Z,46.97
2022-11-27T05:39:16.721Z,53.00
2022-11-27T05:41:44.787Z,47.40
2022-11-27T05:44:15.067Z,54.28
2022-11-27T05:46:44.021Z,50.20
2022-11-27T05:49:16.221Z,43.58
2022-11-27T05:51:50.750Z,47.45
2022-11-27T05:54:19.587Z,47.15
2022-11-27T05:56:47.127Z,48.35
2022-11-27T05:59:15.176Z,40.45
2022-11-27T06:01:43.502Z,44.00
2022-11-27T06:04:10.816Z,40.78
2022-11-27T06:06:38.359Z,47.80
2022-11-27T06:09:10.844Z,54.03
2022-11-27T06:11:41.348Z,53.72
2022-11-27T06:14:11.804Z,61.83
2022-11-27T06:16:39.415Z,48.25
2022-11-27T06:19:07.571Z,47.88
2022-11-27T06:21:35.183Z,41.85
2022-11-27T06:24:03.310Z,51.92
2022-11-27T06:26:33.747Z,49.33
2022-11-27T06:29:01.915Z,52.03
2022-11-27T06:31:32.958Z,48.90
2022-11-27T06:34:00.980Z,53.25
2022-11-27T06:36:34.367Z,51.33
2022-11-27T06:39:04.176Z,58.80
2022-11-27T06:41:32.574Z,48.85
2022-11-27T06:44:01.552Z,48.90
2022-11-27T06:46:30.262Z,43.92
2022-11-27T06:48:58.333Z,51.97
2022-11-27T06:51:29.270Z,61.60
2022-11-27T06:53:57.084Z,52.42
2022-11-27T06:56:27.230Z,52.40
2022-11-27T06:58:58.746Z,51.85
2022-11-27T07:01:29.457Z,51.78
2022-11-27T07:03:57.831Z,53.28
2022-11-27T07:06:27.452Z,56.55
2022-11-27T07:08:56.054Z,51.33
2022-11-27T07:11:27.562Z,53.50
2022-11-27T07:13:58.857Z,56.78
2022-11-27T07:16:29.600Z,56.78
2022-11-27T07:19:04.834Z,56.42
2022-11-27T07:21:33.616Z,60.97
2022-11-27T07:24:01.323Z,57.15
2022-11-27T07:26:30.648Z,50.13
2022-11-27T07:28:58.362Z,51.63
2022-11-27T07:31:30.330Z,68.97
2022-11-27T07:33:58.486Z,63.38
2022-11-27T07:36:31.295Z,65.93
2022-11-27T07:38:58.650Z,61.53
2022-11-27T07:41:32.273Z,60.15
2022-11-27T07:44:01.820Z,54.55
2022-11-27T07:46:30.529Z,59.45
2022-11-27T07:48:58.319Z,52.97
2022-11-27T07:51:26.098Z,57.25
2022-11-27T07:53:53.499Z,58.40
2022-11-27T07:56:21.663Z,52.17
2022-11-27T07:58:49.371Z,53.72
2022-11-27T08:01:19.840Z,55.25
2022-11-27T08:03:47.429Z,57.50
2022-11-27T08:06:22.018Z,49.67
2022-11-27T08:08:50.819Z,54.75
2022-11-27T08:11:29.960Z,53.63
2022-11-27T08:14:01.443Z,46.03
2022-11-27T08:16:30.224Z,49.72
2022-11-27T08:18:58.222Z,52.50
2022-11-27T08:21:27.095Z,55.30
2022-11-27T08:23:55.065Z,50.70
2022-11-27T08:26:22.693Z,49.30
2022-11-27T08:28:52.958Z,48.25
2022-11-27T08:31:21.553Z,48.88
2022-11-27T08:33:49.181Z,51.95
2022-11-27T08:36:18.258Z,47.60
2022-11-27T08:38:47.176Z,49.08
2022-11-27T08:41:15.198Z,55.08
2022-11-27T08:43:42.446Z,47.33
2022-11-27T08:46:11.398Z,51.95
2022-11-27T08:48:38.983Z,54.15
2022-11-27T08:51:11.149Z,48.10
2022-11-27T08:53:38.913Z,47.22
2022-11-27T08:56:11.289Z,43.97
2022-11-27T08:58:41.074Z,44.17
2022-11-27T09:01:21.623Z,43.85
2022-11-27T09:03:49.617Z,42.75
2022-11-27T09:06:21.705Z,38.20
2022-11-27T09:08:49.969Z,36.22
2022-11-27T09:11:20.570Z,35.83
2022-11-27T09:13:48.746Z,39.33
2022-11-27T09:16:20.447Z,38.97
2022-11-27T09:18:52.001Z,39.47
2022-11-27T09:21:22.998Z,43.47
2022-11-27T09:23:54.990Z,36.67
2022-11-27T09:26:24.083Z,30.50
2022-11-27T09:28:53.003Z,38.40
2022-11-27T09:31:22.986Z,33.30
2022-11-27T09:33:50.793Z,30.63
2022-11-27T09:36:23.132Z,34.05
2022-11-27T09:38:50.892Z,28.88
2022-11-27T09:41:47.304Z,25.75
2022-11-27T09:44:43.197Z,24.88
2022-11-27T09:47:20.467Z,26.27
2022-11-27T09:50:13.311Z,25.83
2022-11-27T09:52:54.893Z,30.52
2022-11-27T09:55:37.904Z,25.55
2022-11-27T09:58:22.402Z,21.40
2022-11-27T10:00:49.873Z,28.48
2022-11-27T10:03:28.273Z,25.83
2022-11-27T10:06:24.274Z,23.52
2022-11-27T10:09:56.112Z,22.02
2022-11-27T10:12:44.692Z,30.67
2022-11-27T10:15:42.789Z,24.48
2022-11-27T10:18:22.159Z,26.30
2022-11-27T10:20:58.475Z,20.60
2022-11-27T10:24:00.339Z,17.30
2022-11-27T10:26:55.093Z,17.08
2022-11-27T10:29:38.008Z,17.63
2022-11-27T10:32:53.494Z,14.82
2022-11-27T10:35:17.828Z,18.48
2022-11-27T10:38:23.481Z,14.50
2022-11-27T10:40:54.095Z,13.60
2022-11-27T10:43:25.293Z,15.23
2022-11-27T10:46:17.149Z,15.50
2022-11-27T10:48:45.320Z,17.05
2022-11-27T10:51:22.745Z,16.95
2022-11-27T10:53:54.721Z,19.13
2022-11-27T10:57:15.793Z,12.82
2022-11-27T11:00:19.891Z,13.05
2022-11-27T11:02:47.380Z,12.30
2022-11-27T11:05:45.572Z,14.27
2022-11-27T11:08:21.679Z,15.30
2022-11-27T11:11:04.795Z,11.50
2022-11-27T11:13:40.209Z,10.80
2022-11-27T11:16:24.352Z,10.25
2022-11-27T11:18:55.790Z,17.00
2022-11-27T11:21:30.118Z,13.45
2022-11-27T11:24:13.801Z,10.73
2022-11-27T11:26:49.259Z,12.05
2022-11-27T11:29:54.130Z,14.25
2022-11-27T11:32:21.601Z,17.75
2022-11-27T11:35:03.049Z,18.48
2022-11-27T11:37:44.779Z,14.65
2022-11-27T11:40:16.461Z,15.73
2022-11-27T11:43:04.369Z,13.05
2022-11-27T11:45:35.030Z,12.93
2022-11-27T11:48:27.617Z,12.82
2022-11-27T11:51:23.763Z,15.73
2022-11-27T11:54:41.010Z,11.68
2022-11-27T11:57:46.623Z,13.98
2022-11-27T12:00:18.721Z,15.43
2022-11-27T12:02:46.717Z,13.05
2022-11-27T12:06:10.674Z,15.18
2022-11-27T12:08:59.739Z,12.40
2022-11-27T12:12:17.308Z,14.13
2022-11-27T12:14:59.821Z,13.07
2022-11-27T12:18:06.336Z,9.35
2022-11-27T12:20:58.429Z,11.50
2022-11-27T12:24:09.347Z,10.05
2022-11-27T12:26:48.439Z,9.65
2022-11-27T12:29:54.629Z,10.35
2022-11-27T12:32:43.988Z,7.78
2022-11-27T12:35:34.635Z,7.55
2022-11-27T12:38:45.353Z,9.27
2022-11-27T12:41:42.848Z,9.90
2022-11-27T12:44:47.413Z,6.28
2022-11-27T12:47:28.393Z,7.05
2022-11-27T12:50:14.893Z,6.95
2022-11-27T12:52:54.405Z,6.75
2022-11-27T12:55:27.575Z,8.68
2022-11-27T12:58:04.925Z,6.43
2022-11-27T13:00:40.973Z,6.18
2022-11-27T13:04:02.805Z,8.32
2022-11-27T13:06:48.614Z,9.80
2022-11-27T13:09:28.801Z,11.52
2022-11-27T13:11:57.081Z,13.25
2022-11-27T13:14:28.175Z,13.65
2022-11-27T13:17:09.807Z,11.88
2022-11-27T13:19:49.747Z,12.80
2022-11-27T13:22:34.766Z,11.40
2022-11-27T13:25:03.895Z,13.65
2022-11-27T13:27:37.325Z,13.60
2022-11-27T13:30:09.923Z,14.50
2022-11-27T13:32:43.786Z,14.98
2022-11-27T13:35:42.104Z,16.52
2022-11-27T13:38:24.048Z,16.25
2022-11-27T13:40:58.657Z,15.35
2022-11-27T13:43:45.471Z,15.68
2022-11-27T13:46:25.203Z,13.45
2022-11-27T13:49:05.979Z,15.68
2022-11-27T13:51:37.995Z,13.20
2022-11-27T13:54:12.704Z,14.98
2022-11-27T13:56:41.109Z,14.73
2022-11-27T13:59:25.877Z,13.00
2022-11-27T14:02:00.533Z,14.18
2022-11-27T14:04:31.068Z,12.25
2022-11-27T14:07:11.849Z,10.80
2022-11-27T14:09:54.244Z,10.30
2022-11-27T14:12:30.778Z,11.93
2022-11-27T14:15:18.099Z,12.95
2022-11-27T14:17:50.101Z,14.02
2022-11-27T14:20:17.585Z,12.02
2022-11-27T14:23:10.049Z,15.45
2022-11-27T14:25:36.603Z,12.05
2022-11-27T14:28:15.942Z,12.80
2022-11-27T14:30:57.264Z,16.65
2022-11-27T14:33:31.119Z,14.52
2022-11-27T14:36:06.055Z,14.30
2022-11-27T14:38:35.478Z,14.40
2022-11-27T14:41:18.279Z,17.80
2022-11-27T14:43:46.197Z,18.05
2022-11-27T14:46:22.200Z,15.73
2022-11-27T14:48:56.420Z,22.65
2022-11-27T14:51:31.053Z,31.75
2022-11-27T14:54:09.929Z,33.00
2022-11-27T14:56:43.391Z,42.40
2022-11-27T14:59:18.183Z,50.83
2022-11-27T15:01:57.734Z,42.75
2022-11-27T15:04:38.780Z,37.63
2022-11-27T15:07:25.172Z,27.50
2022-11-27T15:09:56.771Z,34.63
2022-11-27T15:12:48.349Z,45.33
2022-11-27T15:15:22.719Z,47.92
2022-11-27T15:17:56.522Z,44.05
2022-11-27T15:20:37.385Z,42.92
2022-11-27T15:23:14.369Z,38.30
2022-11-27T15:25:46.451Z,32.13
2022-11-27T15:28:32.577Z,34.65
2022-11-27T15:31:00.414Z,25.08
2022-11-27T15:33:34.258Z,27.05
2022-11-27T15:36:20.961Z,26.45
2022-11-27T15:38:51.089Z,29.60
2022-11-27T15:41:30.283Z,24.85
2022-11-27T15:43:57.592Z,22.23
2022-11-27T15:46:33.045Z,18.63
2022-11-27T15:49:00.345Z,17.60
2022-11-27T15:51:29.225Z,17.17
2022-11-27T15:54:02.769Z,16.08
2022-11-27T15:56:30.369Z,15.38
2022-11-27T15:58:57.624Z,19.85
2022-11-27T16:01:25.179Z,14.75
2022-11-27T16:03:52.432Z,17.15
2022-11-27T16:06:23.468Z,23.95
2022-11-27T16:09:01.733Z,32.25
2022-11-27T16:11:31.421Z,35.38
2022-11-27T16:13:58.941Z,31.98
2022-11-27T16:16:27.091Z,28.95
2022-11-27T16:19:01.240Z,23.83
2022-11-27T16:21:30.343Z,23.65
2022-11-27T16:24:04.550Z,22.00
2022-11-27T16:26:32.842Z,22.92
2022-11-27T16:29:00.507Z,23.85
2022-11-27T16:31:28.822Z,20.48
2022-11-27T16:33:56.904Z,21.20
2022-11-27T16:36:24.660Z,19.33
2022-11-27T16:38:54.512Z,21.13
2022-11-27T16:41:23.453Z,19.10
2022-11-27T16:43:53.955Z,18.13
2022-11-27T16:46:27.956Z,21.73
2022-11-27T16:48:58.920Z,19.73
2022-11-27T16:51:32.167Z,19.80
2022-11-27T16:54:05.703Z,19.40
2022-11-27T16:56:35.170Z,20.98
2022-11-27T16:59:03.531Z,24.65
2022-11-27T17:01:35.847Z,23.50
2022-11-27T17:04:09.251Z,24.15
2022-11-27T17:06:39.172Z,23.52
2022-11-27T17:09:08.667Z,25.45
2022-11-27T17:11:41.097Z,24.33
2022-11-27T17:14:09.824Z,24.70
2022-11-27T17:16:41.342Z,25.98
2022-11-27T17:19:13.548Z,25.92
2022-11-27T17:21:42.174Z,31.17
2022-11-27T17:24:15.957Z,30.70
2022-11-27T17:26:45.959Z,29.80
2022-11-27T17:29:17.894Z,32.35
2022-11-27T17:31:45.646Z,41.53
2022-11-27T17:34:15.601Z,46.15
2022-11-27T17:36:45.171Z,46.83
2022-11-27T17:39:15.719Z,46.13
2022-11-27T17:41:45.256Z,37.22
2022-11-27T17:44:13.016Z,44.30
2022-11-27T17:46:40.918Z,48.20
2022-11-27T17:49:08.531Z,54.42
2022-11-27T17:51:38.776Z,57.88
2022-11-27T17:54:08.014Z,54.22
2022-11-27T17:56:35.662Z,48.67
2022-11-27T17:59:03.419Z,44.80
2022-11-27T18:01:33.826Z,52.40
2022-11-27T18:04:03.987Z,71.53
2022-11-27T18:06:32.507Z,62.05
2022-11-27T18:09:00.153Z,70.68
2022-11-27T18:11:32.082Z,62.58
2022-11-27T18:13:59.934Z,66.28
2022-11-27T18:16:37.696Z,61.63
2022-11-27T18:19:11.249Z,60.05
2022-11-27T18:21:39.877Z,53.88
2022-11-27T18:24:23.041Z,58.60
2022-11-27T18:27:07.652Z,48.03
2022-11-27T18:29:42.517Z,48.38
2022-11-27T18:32:12.947Z,51.72
2022-11-27T18:34:41.515Z,47.65
2022-11-27T18:37:10.893Z,44.08
2022-11-27T18:39:40.405Z,47.00
2022-11-27T18:42:08.472Z,52.42
2022-11-27T18:44:44.302Z,56.25
2022-11-27T18:47:15.799Z,65.60
2022-11-27T18:49:43.684Z,65.93
2022-11-27T18:52:11.814Z,69.97
2022-11-27T18:54:39.538Z,74.68
2022-11-27T18:57:07.240Z,79.53
2022-11-27T18:59:35.261Z,70.40
2022-11-27T19:02:04.530Z,75.10
2022-11-27T19:04:34.469Z,81.65
2022-11-27T19:07:02.019Z,96.13
2022-11-27T19:09:29.440Z,89.03
2022-11-27T19:11:57.773Z,86.78
2022-11-27T19:14:25.241Z,72.45
2022-11-27T19:16:52.983Z,58.97
2022-11-27T19:22:09.486Z,65.53
2022-11-27T19:24:38.135Z,65.22
2022-11-27T19:27:05.768Z,66.90
2022-11-27T19:29:33.178Z,63.17
2022-11-27T19:32:03.238Z,62.63
2022-11-27T19:34:30.782Z,63.03
2022-11-27T19:36:58.554Z,63.40
2022-11-27T19:39:27.362Z,60.60
2022-11-27T19:41:55.412Z,55.88
2022-11-27T19:44:22.628Z,49.10
2022-11-27T19:46:50.188Z,48.45
2022-11-27T19:49:18.243Z,47.88
2022-11-27T19:51:46.248Z,46.85
2022-11-27T19:54:15.758Z,50.95
2022-11-27T19:56:43.666Z,52.65
2022-11-27T19:59:12.600Z,58.58
2022-11-27T20:01:40.849Z,56.95
2022-11-27T20:04:11.745Z,54.80
2022-11-27T20:06:39.896Z,58.70
2022-11-27T20:09:08.045Z,53.00
2022-11-27T20:11:36.484Z,55.60
2022-11-27T20:14:05.695Z,49.15
2022-11-27T20:16:36.249Z,50.30
2022-11-27T20:19:06.136Z,52.45
2022-11-27T20:21:34.024Z,57.00
2022-11-27T20:24:02.251Z,62.47
2022-11-27T20:26:30.851Z,61.53
2022-11-27T20:28:58.934Z,59.30
2022-11-27T20:31:31.927Z,68.53
2022-11-27T20:34:03.472Z,67.10
2022-11-27T20:36:38.329Z,71.97
2022-11-27T20:39:06.435Z,68.55
2022-11-27T20:41:34.012Z,77.95
2022-11-27T20:44:04.772Z,69.10
2022-11-27T20:46:33.517Z,67.35
2022-11-27T20:49:01.292Z,65.38
2022-11-27T20:51:34.160Z,63.55
2022-11-27T20:54:03.208Z,61.88
2022-11-27T20:56:31.635Z,77.00
2022-11-27T20:58:59.883Z,74.32
2022-11-27T21:01:34.101Z,66.35
2022-11-27T21:04:09.471Z,64.32
2022-11-27T21:06:43.894Z,65.63
2022-11-27T21:09:13.984Z,78.45
2022-11-27T21:11:42.845Z,66.57
2022-11-27T21:14:13.466Z,64.82
2022-11-27T21:16:48.272Z,67.82
2022-11-27T21:19:26.940Z,71.07
2022-11-27T21:21:55.580Z,62.97
2022-11-27T21:24:25.849Z,65.90
2022-11-27T21:26:53.564Z,77.20
2022-11-27T21:29:25.578Z,80.45
2022-11-27T21:31:53.995Z,87.60
2022-11-27T21:34:21.284Z,78.00
2022-11-27T21:36:49.330Z,75.90
2022-11-27T21:39:23.913Z,81.43
2022-11-27T21:41:55.179Z,75.03
2022-11-27T21:44:24.170Z,76.55
2022-11-27T21:46:52.474Z,73.82
2022-11-27T21:49:21.375Z,78.80
2022-11-27T21:51:54.175Z,74.80
2022-11-27T21:54:22.325Z,74.15
2022-11-27T21:56:53.552Z,84.20
2022-11-27T21:59:20.935Z,77.70
2022-11-27T22:01:48.559Z,72.75
2022-11-27T22:04:16.389Z,72.53
2022-11-27T22:06:45.272Z,74.53
2022-11-27T22:09:15.678Z,73.28
2022-11-27T22:11:46.252Z,67.55
2022-11-27T22:14:16.177Z,70.95
2022-11-27T22:16:46.432Z,75.25
2022-11-27T22:19:15.083Z,71.32
2022-11-27T22:21:44.657Z,67.50
2022-11-27T22:24:18.425Z,62.08
2022-11-27T22:26:48.185Z,59.85
2022-11-27T22:29:15.764Z,60.28
2022-11-27T22:31:43.380Z,60.00
2022-11-27T22:34:10.647Z,58.28
2022-11-27T22:36:38.708Z,52.92
2022-11-27T22:39:08.819Z,52.67
2022-11-27T22:41:40.132Z,55.28
2022-11-27T22:44:25.487Z,51.90
2022-11-27T22:46:53.030Z,50.37
2022-11-27T22:49:20.412Z,48.38
2022-11-27T22:51:48.182Z,51.80
2022-11-27T22:54:17.319Z,51.47
2022-11-27T22:56:45.920Z,50.63
2022-11-27T23:02:01.667Z,48.78
2022-11-27T23:04:29.392Z,50.90
2022-11-27T23:06:56.894Z,49.88
2022-11-27T23:09:24.351Z,46.03
2022-11-27T23:11:52.010Z,50.87
2022-11-27T23:14:19.272Z,50.17
2022-11-27T23:16:46.794Z,49.40
2022-11-27T23:19:14.098Z,50.40
2022-11-27T23:21:42.017Z,48.28
2022-11-27T23:24:15.312Z,54.20
2022-11-27T23:26:43.971Z,49.38
2022-11-27T23:29:11.606Z,50.77
2022-11-27T23:31:39.356Z,44.80
2022-11-27T23:34:16.166Z,50.30
2022-11-27T23:36:44.585Z,43.40
2022-11-27T23:39:13.546Z,44.30
2022-11-27T23:41:41.845Z,47.57
2022-11-27T23:44:09.760Z,48.58
2022-11-27T23:46:37.308Z,45.60
2022-11-27T23:49:04.678Z,48.50
2022-11-27T23:51:33.636Z,48.40
2022-11-27T23:54:01.891Z,48.97
2022-11-27T23:56:32.050Z,47.63
2022-11-27T23:59:00.636Z,49.30
